sensor_id;sensor_type;location;lat;lon;timestamp;P1;durP1;ratioP1;P2;durP2;ratioP2
45893;SDS011;31603;51.148;16.932;2023-06-22T00:01:59;39.55;;;13.57;;
45893;SDS011;31603;51.148;16.932;2023-06-22T00:04:25;53.15;;;15.30;;
45893;SDS011;31603;51.148;16.932;2023-06-22T00:06:51;42.42;;;14.57;;
45893;SDS011;31603;51.148;16.932;2023-06-22T00:09:19;53.90;;;14.82;;
45893;SDS011;31603;51.148;16.932;2023-06-22T00:11:46;54.05;;;13.88;;
45893;SDS011;31603;51.148;16.932;2023-06-22T00:14:13;44.40;;;14.70;;
45893;SDS011;31603;51.148;16.932;2023-06-22T00:16:40;55.58;;;15.00;;
45893;SDS011;31603;51.148;16.932;2023-06-22T00:19:23;43.92;;;14.15;;
45893;SDS011;31603;51.148;16.932;2023-06-22T00:21:49;46.60;;;14.07;;
45893;SDS011;31603;51.148;16.932;2023-06-22T00:24:19;47.38;;;14.20;;
45893;SDS011;31603;51.148;16.932;2023-06-22T00:26:49;44.05;;;13.80;;
45893;SDS011;31603;51.148;16.932;2023-06-22T00:29:15;55.55;;;14.63;;
45893;SDS011;31603;51.148;16.932;2023-06-22T00:31:41;52.05;;;14.90;;
45893;SDS011;31603;51.148;16.932;2023-06-22T00:34:08;53.10;;;14.93;;
45893;SDS011;31603;51.148;16.932;2023-06-22T00:36:38;62.22;;;14.73;;
45893;SDS011;31603;51.148;16.932;2023-06-22T00:39:06;43.45;;;14.35;;
45893;SDS011;31603;51.148;16.932;2023-06-22T00:41:33;48.80;;;14.57;;
45893;SDS011;31603;51.148;16.932;2023-06-22T00:43:59;50.13;;;13.80;;
45893;SDS011;31603;51.148;16.932;2023-06-22T00:46:26;52.47;;;15.35;;
45893;SDS011;31603;51.148;16.932;2023-06-22T00:48:53;53.92;;;16.40;;
45893;SDS011;31603;51.148;16.932;2023-06-22T00:51:22;47.78;;;13.98;;
45893;SDS011;31603;51.148;16.932;2023-06-22T00:53:50;44.65;;;15.77;;
45893;SDS011;31603;51.148;16.932;2023-06-22T00:56:18;44.60;;;14.23;;
45893;SDS011;31603;51.148;16.932;2023-06-22T00:58:49;46.70;;;14.82;;
45893;SDS011;31603;51.148;16.932;2023-06-22T01:01:17;54.15;;;16.58;;
45893;SDS011;31603;51.148;16.932;2023-06-22T01:03:47;51.85;;;15.18;;
45893;SDS011;31603;51.148;16.932;2023-06-22T01:06:16;56.25;;;15.27;;
45893;SDS011;31603;51.148;16.932;2023-06-22T01:08:46;44.20;;;15.00;;
45893;SDS011;31603;51.148;16.932;2023-06-22T01:11:18;44.47;;;16.00;;
45893;SDS011;31603;51.148;16.932;2023-06-22T01:13:49;36.17;;;14.70;;
45893;SDS011;31603;51.148;16.932;2023-06-22T01:16:17;35.00;;;15.15;;
45893;SDS011;31603;51.148;16.932;2023-06-22T01:18:46;39.83;;;15.95;;
45893;SDS011;31603;51.148;16.932;2023-06-22T01:21:16;34.70;;;15.13;;
45893;SDS011;31603;51.148;16.932;2023-06-22T01:23:56;34.75;;;17.05;;
45893;SDS011;31603;51.148;16.932;2023-06-22T01:26:28;37.17;;;15.98;;
45893;SDS011;31603;51.148;16.932;2023-06-22T01:28:58;37.05;;;14.93;;
45893;SDS011;31603;51.148;16.932;2023-06-22T01:31:26;28.40;;;15.68;;
45893;SDS011;31603;51.148;16.932;2023-06-22T01:33:55;31.38;;;14.82;;
45893;SDS011;31603;51.148;16.932;2023-06-22T01:36:22;28.60;;;15.05;;
45893;SDS011;31603;51.148;16.932;2023-06-22T01:38:49;36.03;;;17.60;;
45893;SDS011;31603;51.148;16.932;2023-06-22T01:41:16;32.83;;;14.68;;
45893;SDS011;31603;51.148;16.932;2023-06-22T01:43:43;31.15;;;13.60;;
45893;SDS011;31603;51.148;16.932;2023-06-22T01:46:11;30.08;;;14.43;;
45893;SDS011;31603;51.148;16.932;2023-06-22T01:48:38;30.88;;;14.10;;
45893;SDS011;31603;51.148;16.932;2023-06-22T01:51:05;29.20;;;14.50;;
45893;SDS011;31603;51.148;16.932;2023-06-22T01:53:31;30.08;;;15.52;;
45893;SDS011;31603;51.148;16.932;2023-06-22T01:55:57;27.52;;;13.63;;
45893;SDS011;31603;51.148;16.932;2023-06-22T01:58:25;28.52;;;15.27;;
45893;SDS011;31603;51.148;16.932;2023-06-22T02:00:53;36.05;;;16.40;;
45893;SDS011;31603;51.148;16.932;2023-06-22T02:03:26;34.05;;;15.32;;
45893;SDS011;31603;51.148;16.932;2023-06-22T02:05:56;28.75;;;14.80;;
45893;SDS011;31603;51.148;16.932;2023-06-22T02:08:25;29.35;;;15.25;;
45893;SDS011;31603;51.148;16.932;2023-06-22T02:10:51;29.73;;;14.27;;
45893;SDS011;31603;51.148;16.932;2023-06-22T02:13:18;29.58;;;14.30;;
45893;SDS011;31603;51.148;16.932;2023-06-22T02:15:45;30.45;;;14.52;;
45893;SDS011;31603;51.148;16.932;2023-06-22T02:18:12;33.15;;;14.30;;
45893;SDS011;31603;51.148;16.932;2023-06-22T02:20:40;30.85;;;14.75;;
45893;SDS011;31603;51.148;16.932;2023-06-22T02:23:06;31.80;;;13.95;;
45893;SDS011;31603;51.148;16.932;2023-06-22T02:25:33;30.10;;;14.75;;
45893;SDS011;31603;51.148;16.932;2023-06-22T02:28:00;33.22;;;14.63;;
45893;SDS011;31603;51.148;16.932;2023-06-22T02:30:26;28.35;;;13.98;;
45893;SDS011;31603;51.148;16.932;2023-06-22T02:32:53;31.25;;;15.43;;
45893;SDS011;31603;51.148;16.932;2023-06-22T02:35:23;29.25;;;13.85;;
45893;SDS011;31603;51.148;16.932;2023-06-22T02:37:51;29.48;;;13.07;;
45893;SDS011;31603;51.148;16.932;2023-06-22T02:40:17;30.45;;;15.05;;
45893;SDS011;31603;51.148;16.932;2023-06-22T02:42:44;29.65;;;14.35;;
45893;SDS011;31603;51.148;16.932;2023-06-22T02:45:10;28.55;;;14.98;;
45893;SDS011;31603;51.148;16.932;2023-06-22T02:47:37;26.35;;;13.93;;
45893;SDS011;31603;51.148;16.932;2023-06-22T02:50:04;26.10;;;14.57;;
45893;SDS011;31603;51.148;16.932;2023-06-22T02:52:30;26.23;;;14.43;;
45893;SDS011;31603;51.148;16.932;2023-06-22T02:54:58;24.85;;;14.05;;
45893;SDS011;31603;51.148;16.932;2023-06-22T02:57:24;26.65;;;14.23;;
45893;SDS011;31603;51.148;16.932;2023-06-22T02:59:51;24.75;;;13.95;;
45893;SDS011;31603;51.148;16.932;2023-06-22T03:02:17;27.95;;;14.48;;
45893;SDS011;31603;51.148;16.932;2023-06-22T03:04:46;22.80;;;13.80;;
45893;SDS011;31603;51.148;16.932;2023-06-22T03:07:14;29.52;;;14.63;;
45893;SDS011;31603;51.148;16.932;2023-06-22T03:09:40;26.40;;;14.68;;
45893;SDS011;31603;51.148;16.932;2023-06-22T03:12:09;25.10;;;13.85;;
45893;SDS011;31603;51.148;16.932;2023-06-22T03:14:36;27.38;;;14.70;;
45893;SDS011;31603;51.148;16.932;2023-06-22T03:17:03;24.88;;;14.60;;
45893;SDS011;31603;51.148;16.932;2023-06-22T03:19:30;27.88;;;15.02;;
45893;SDS011;31603;51.148;16.932;2023-06-22T03:21:57;29.98;;;15.73;;
45893;SDS011;31603;51.148;16.932;2023-06-22T03:24:24;27.27;;;15.65;;
45893;SDS011;31603;51.148;16.932;2023-06-22T03:26:50;27.88;;;15.00;;
45893;SDS011;31603;51.148;16.932;2023-06-22T03:29:18;30.00;;;16.30;;
45893;SDS011;31603;51.148;16.932;2023-06-22T03:31:45;33.80;;;17.63;;
45893;SDS011;31603;51.148;16.932;2023-06-22T03:34:12;33.42;;;16.10;;
45893;SDS011;31603;51.148;16.932;2023-06-22T03:36:38;29.15;;;15.07;;
45893;SDS011;31603;51.148;16.932;2023-06-22T03:39:05;28.80;;;15.80;;
45893;SDS011;31603;51.148;16.932;2023-06-22T03:41:31;28.13;;;16.38;;
45893;SDS011;31603;51.148;16.932;2023-06-22T03:43:58;27.45;;;15.80;;
45893;SDS011;31603;51.148;16.932;2023-06-22T03:46:25;29.23;;;16.40;;
45893;SDS011;31603;51.148;16.932;2023-06-22T03:48:52;32.65;;;16.55;;
45893;SDS011;31603;51.148;16.932;2023-06-22T03:51:19;29.40;;;17.63;;
45893;SDS011;31603;51.148;16.932;2023-06-22T03:53:46;37.03;;;18.38;;
45893;SDS011;31603;51.148;16.932;2023-06-22T03:56:13;34.92;;;20.67;;
45893;SDS011;31603;51.148;16.932;2023-06-22T03:58:45;28.63;;;16.88;;
45893;SDS011;31603;51.148;16.932;2023-06-22T04:01:11;31.52;;;16.23;;
45893;SDS011;31603;51.148;16.932;2023-06-22T04:03:40;28.48;;;15.18;;
45893;SDS011;31603;51.148;16.932;2023-06-22T04:06:07;34.22;;;15.30;;
45893;SDS011;31603;51.148;16.932;2023-06-22T04:08:33;27.13;;;15.68;;
45893;SDS011;31603;51.148;16.932;2023-06-22T04:10:59;30.45;;;15.48;;
45893;SDS011;31603;51.148;16.932;2023-06-22T04:13:26;31.67;;;16.60;;
45893;SDS011;31603;51.148;16.932;2023-06-22T04:15:52;33.53;;;18.33;;
45893;SDS011;31603;51.148;16.932;2023-06-22T04:18:18;31.75;;;16.50;;
45893;SDS011;31603;51.148;16.932;2023-06-22T04:20:47;35.10;;;16.23;;
45893;SDS011;31603;51.148;16.932;2023-06-22T04:23:13;29.38;;;15.63;;
45893;SDS011;31603;51.148;16.932;2023-06-22T04:25:39;28.90;;;15.25;;
45893;SDS011;31603;51.148;16.932;2023-06-22T04:28:06;29.75;;;15.60;;
45893;SDS011;31603;51.148;16.932;2023-06-22T04:30:37;27.85;;;15.73;;
45893;SDS011;31603;51.148;16.932;2023-06-22T04:33:11;29.30;;;14.60;;
45893;SDS011;31603;51.148;16.932;2023-06-22T04:35:38;32.85;;;16.15;;
45893;SDS011;31603;51.148;16.932;2023-06-22T04:38:07;27.75;;;15.60;;
45893;SDS011;31603;51.148;16.932;2023-06-22T04:40:34;32.97;;;15.32;;
45893;SDS011;31603;51.148;16.932;2023-06-22T04:43:00;32.80;;;14.13;;
45893;SDS011;31603;51.148;16.932;2023-06-22T04:45:27;40.42;;;15.52;;
45893;SDS011;31603;51.148;16.932;2023-06-22T04:47:54;46.17;;;15.23;;
45893;SDS011;31603;51.148;16.932;2023-06-22T04:50:20;44.40;;;18.85;;
45893;SDS011;31603;51.148;16.932;2023-06-22T04:52:48;35.65;;;14.38;;
45893;SDS011;31603;51.148;16.932;2023-06-22T04:55:16;36.95;;;16.40;;
45893;SDS011;31603;51.148;16.932;2023-06-22T04:57:43;37.33;;;15.68;;
45893;SDS011;31603;51.148;16.932;2023-06-22T05:00:10;46.58;;;16.08;;
45893;SDS011;31603;51.148;16.932;2023-06-22T05:02:42;46.85;;;15.73;;
45893;SDS011;31603;51.148;16.932;2023-06-22T05:05:08;45.83;;;16.58;;
45893;SDS011;31603;51.148;16.932;2023-06-22T05:07:38;44.67;;;17.60;;
45893;SDS011;31603;51.148;16.932;2023-06-22T05:10:07;55.78;;;17.50;;
45893;SDS011;31603;51.148;16.932;2023-06-22T05:12:38;42.58;;;18.10;;
45893;SDS011;31603;51.148;16.932;2023-06-22T05:15:05;43.75;;;18.27;;
45893;SDS011;31603;51.148;16.932;2023-06-22T05:17:31;37.67;;;15.68;;
45893;SDS011;31603;51.148;16.932;2023-06-22T05:20:02;43.00;;;19.73;;
45893;SDS011;31603;51.148;16.932;2023-06-22T05:22:34;43.47;;;18.50;;
45893;SDS011;31603;51.148;16.932;2023-06-22T05:25:00;47.25;;;18.65;;
45893;SDS011;31603;51.148;16.932;2023-06-22T05:27:27;47.55;;;18.63;;
45893;SDS011;31603;51.148;16.932;2023-06-22T05:29:58;33.85;;;17.40;;
45893;SDS011;31603;51.148;16.932;2023-06-22T05:32:26;36.90;;;18.17;;
45893;SDS011;31603;51.148;16.932;2023-06-22T05:34:54;49.20;;;21.20;;
45893;SDS011;31603;51.148;16.932;2023-06-22T05:37:20;48.63;;;17.27;;
45893;SDS011;31603;51.148;16.932;2023-06-22T05:39:47;42.17;;;18.25;;
45893;SDS011;31603;51.148;16.932;2023-06-22T05:42:14;41.97;;;17.70;;
45893;SDS011;31603;51.148;16.932;2023-06-22T05:44:43;38.55;;;16.38;;
45893;SDS011;31603;51.148;16.932;2023-06-22T05:47:13;46.47;;;16.88;;
45893;SDS011;31603;51.148;16.932;2023-06-22T05:49:40;43.50;;;16.02;;
45893;SDS011;31603;51.148;16.932;2023-06-22T05:52:06;42.20;;;16.55;;
45893;SDS011;31603;51.148;16.932;2023-06-22T05:54:33;39.33;;;14.98;;
45893;SDS011;31603;51.148;16.932;2023-06-22T05:56:59;44.35;;;14.40;;
45893;SDS011;31603;51.148;16.932;2023-06-22T05:59:26;41.15;;;14.55;;
45893;SDS011;31603;51.148;16.932;2023-06-22T06:01:52;40.80;;;16.00;;
45893;SDS011;31603;51.148;16.932;2023-06-22T06:04:20;48.33;;;15.32;;
45893;SDS011;31603;51.148;16.932;2023-06-22T06:06:51;47.10;;;15.27;;
45893;SDS011;31603;51.148;16.932;2023-06-22T06:09:17;47.85;;;14.70;;
45893;SDS011;31603;51.148;16.932;2023-06-22T06:11:43;53.47;;;15.52;;
45893;SDS011;31603;51.148;16.932;2023-06-22T06:14:10;70.15;;;16.60;;
45893;SDS011;31603;51.148;16.932;2023-06-22T06:16:36;58.15;;;15.88;;
45893;SDS011;31603;51.148;16.932;2023-06-22T06:19:02;52.97;;;14.32;;
45893;SDS011;31603;51.148;16.932;2023-06-22T06:21:30;58.08;;;14.77;;
45893;SDS011;31603;51.148;16.932;2023-06-22T06:23:56;45.00;;;12.55;;
45893;SDS011;31603;51.148;16.932;2023-06-22T06:26:23;55.25;;;13.30;;
45893;SDS011;31603;51.148;16.932;2023-06-22T06:28:53;49.38;;;12.75;;
45893;SDS011;31603;51.148;16.932;2023-06-22T06:31:19;45.80;;;12.05;;
45893;SDS011;31603;51.148;16.932;2023-06-22T06:33:45;40.38;;;11.05;;
45893;SDS011;31603;51.148;16.932;2023-06-22T06:36:12;47.03;;;11.38;;
45893;SDS011;31603;51.148;16.932;2023-06-22T06:38:40;43.83;;;10.95;;
45893;SDS011;31603;51.148;16.932;2023-06-22T06:41:06;42.50;;;11.45;;
45893;SDS011;31603;51.148;16.932;2023-06-22T06:43:33;38.22;;;11.25;;
45893;SDS011;31603;51.148;16.932;2023-06-22T06:45:59;44.58;;;11.40;;
45893;SDS011;31603;51.148;16.932;2023-06-22T06:48:25;35.88;;;11.32;;
45893;SDS011;31603;51.148;16.932;2023-06-22T06:50:51;37.90;;;11.23;;
45893;SDS011;31603;51.148;16.932;2023-06-22T06:53:18;44.85;;;12.73;;
45893;SDS011;31603;51.148;16.932;2023-06-22T06:55:46;37.22;;;11.65;;
45893;SDS011;31603;51.148;16.932;2023-06-22T06:58:12;40.42;;;12.38;;
45893;SDS011;31603;51.148;16.932;2023-06-22T07:00:38;39.45;;;11.20;;
45893;SDS011;31603;51.148;16.932;2023-06-22T07:03:05;39.88;;;12.77;;
45893;SDS011;31603;51.148;16.932;2023-06-22T07:05:32;31.17;;;10.57;;
45893;SDS011;31603;51.148;16.932;2023-06-22T07:07:58;49.35;;;11.77;;
45893;SDS011;31603;51.148;16.932;2023-06-22T07:10:24;37.60;;;10.65;;
45893;SDS011;31603;51.148;16.932;2023-06-22T07:12:52;46.53;;;11.70;;
45893;SDS011;31603;51.148;16.932;2023-06-22T07:15:18;43.40;;;12.30;;
45893;SDS011;31603;51.148;16.932;2023-06-22T07:17:44;47.03;;;12.10;;
45893;SDS011;31603;51.148;16.932;2023-06-22T07:20:11;49.28;;;11.93;;
45893;SDS011;31603;51.148;16.932;2023-06-22T07:22:37;55.35;;;14.98;;
45893;SDS011;31603;51.148;16.932;2023-06-22T07:25:04;44.28;;;12.50;;
45893;SDS011;31603;51.148;16.932;2023-06-22T07:27:34;47.40;;;12.30;;
45893;SDS011;31603;51.148;16.932;2023-06-22T07:30:03;45.45;;;15.00;;
45893;SDS011;31603;51.148;16.932;2023-06-22T07:32:29;52.85;;;13.18;;
45893;SDS011;31603;51.148;16.932;2023-06-22T07:34:55;45.28;;;13.05;;
45893;SDS011;31603;51.148;16.932;2023-06-22T07:37:22;41.35;;;12.90;;
45893;SDS011;31603;51.148;16.932;2023-06-22T07:39:48;51.20;;;15.18;;
45893;SDS011;31603;51.148;16.932;2023-06-22T07:42:18;54.50;;;14.07;;
45893;SDS011;31603;51.148;16.932;2023-06-22T07:44:45;70.38;;;16.25;;
45893;SDS011;31603;51.148;16.932;2023-06-22T07:47:12;53.60;;;15.25;;
45893;SDS011;31603;51.148;16.932;2023-06-22T07:49:39;51.22;;;15.25;;
45893;SDS011;31603;51.148;16.932;2023-06-22T07:52:05;41.85;;;12.90;;
45893;SDS011;31603;51.148;16.932;2023-06-22T07:54:31;49.83;;;13.75;;
45893;SDS011;31603;51.148;16.932;2023-06-22T07:56:58;45.53;;;12.95;;
45893;SDS011;31603;51.148;16.932;2023-06-22T07:59:24;47.78;;;13.70;;
45893;SDS011;31603;51.148;16.932;2023-06-22T08:01:51;49.83;;;13.38;;
45893;SDS011;31603;51.148;16.932;2023-06-22T08:04:18;55.17;;;14.15;;
45893;SDS011;31603;51.148;16.932;2023-06-22T08:06:45;46.33;;;13.57;;
45893;SDS011;31603;51.148;16.932;2023-06-22T08:09:11;60.67;;;14.02;;
45893;SDS011;31603;51.148;16.932;2023-06-22T08:11:38;59.30;;;13.93;;
45893;SDS011;31603;51.148;16.932;2023-06-22T08:14:04;39.92;;;11.60;;
45893;SDS011;31603;51.148;16.932;2023-06-22T08:16:30;58.40;;;12.52;;
45893;SDS011;31603;51.148;16.932;2023-06-22T08:18:57;54.70;;;13.00;;
45893;SDS011;31603;51.148;16.932;2023-06-22T08:21:24;38.58;;;11.38;;
45893;SDS011;31603;51.148;16.932;2023-06-22T08:23:51;52.25;;;13.65;;
45893;SDS011;31603;51.148;16.932;2023-06-22T08:26:17;61.97;;;13.73;;
45893;SDS011;31603;51.148;16.932;2023-06-22T08:28:43;55.00;;;13.88;;
45893;SDS011;31603;51.148;16.932;2023-06-22T08:31:10;55.20;;;13.95;;
45893;SDS011;31603;51.148;16.932;2023-06-22T08:33:37;53.85;;;13.40;;
45893;SDS011;31603;51.148;16.932;2023-06-22T08:36:04;53.15;;;13.98;;
45893;SDS011;31603;51.148;16.932;2023-06-22T08:38:32;58.47;;;14.65;;
45893;SDS011;31603;51.148;16.932;2023-06-22T08:40:59;52.15;;;14.77;;
45893;SDS011;31603;51.148;16.932;2023-06-22T08:43:26;68.85;;;15.07;;
45893;SDS011;31603;51.148;16.932;2023-06-22T08:45:52;51.65;;;15.15;;
45893;SDS011;31603;51.148;16.932;2023-06-22T08:48:18;60.53;;;14.02;;
45893;SDS011;31603;51.148;16.932;2023-06-22T08:50:44;55.05;;;14.23;;
45893;SDS011;31603;51.148;16.932;2023-06-22T08:53:11;69.65;;;15.45;;
45893;SDS011;31603;51.148;16.932;2023-06-22T08:55:39;51.78;;;14.32;;
45893;SDS011;31603;51.148;16.932;2023-06-22T08:58:05;58.90;;;14.13;;
45893;SDS011;31603;51.148;16.932;2023-06-22T09:00:31;46.63;;;11.30;;
45893;SDS011;31603;51.148;16.932;2023-06-22T09:02:59;52.90;;;12.48;;
45893;SDS011;31603;51.148;16.932;2023-06-22T09:05:26;44.50;;;12.75;;
45893;SDS011;31603;51.148;16.932;2023-06-22T09:07:52;54.60;;;11.35;;
45893;SDS011;31603;51.148;16.932;2023-06-22T09:10:19;67.43;;;14.02;;
45893;SDS011;31603;51.148;16.932;2023-06-22T09:12:47;45.55;;;11.23;;
45893;SDS011;31603;51.148;16.932;2023-06-22T09:15:13;70.60;;;12.13;;
45893;SDS011;31603;51.148;16.932;2023-06-22T09:17:40;54.47;;;11.32;;
45893;SDS011;31603;51.148;16.932;2023-06-22T09:20:07;51.35;;;10.82;;
45893;SDS011;31603;51.148;16.932;2023-06-22T09:22:35;71.85;;;13.70;;
45893;SDS011;31603;51.148;16.932;2023-06-22T09:25:02;86.40;;;15.00;;
45893;SDS011;31603;51.148;16.932;2023-06-22T09:27:28;68.88;;;12.38;;
45893;SDS011;31603;51.148;16.932;2023-06-22T09:29:56;70.00;;;12.70;;
45893;SDS011;31603;51.148;16.932;2023-06-22T09:32:23;63.03;;;12.35;;
45893;SDS011;31603;51.148;16.932;2023-06-22T09:34:49;53.53;;;10.38;;
45893;SDS011;31603;51.148;16.932;2023-06-22T09:37:15;45.90;;;10.57;;
45893;SDS011;31603;51.148;16.932;2023-06-22T09:39:42;48.50;;;10.27;;
45893;SDS011;31603;51.148;16.932;2023-06-22T09:42:08;52.75;;;9.73;;
45893;SDS011;31603;51.148;16.932;2023-06-22T09:44:34;53.20;;;10.90;;
45893;SDS011;31603;51.148;16.932;2023-06-22T09:47:02;42.08;;;10.18;;
45893;SDS011;31603;51.148;16.932;2023-06-22T09:49:28;48.53;;;10.65;;
45893;SDS011;31603;51.148;16.932;2023-06-22T09:51:54;33.97;;;9.70;;
45893;SDS011;31603;51.148;16.932;2023-06-22T09:54:21;33.45;;;9.18;;
45893;SDS011;31603;51.148;16.932;2023-06-22T09:56:47;31.88;;;10.02;;
45893;SDS011;31603;51.148;16.932;2023-06-22T09:59:13;33.47;;;9.05;;
45893;SDS011;31603;51.148;16.932;2023-06-22T10:01:40;35.22;;;9.60;;
45893;SDS011;31603;51.148;16.932;2023-06-22T10:04:07;35.55;;;9.77;;
45893;SDS011;31603;51.148;16.932;2023-06-22T10:06:33;31.75;;;9.13;;
45893;SDS011;31603;51.148;16.932;2023-06-22T10:09:00;31.08;;;8.98;;
45893;SDS011;31603;51.148;16.932;2023-06-22T10:11:26;41.15;;;9.40;;
45893;SDS011;31603;51.148;16.932;2023-06-22T10:13:55;42.72;;;10.02;;
45893;SDS011;31603;51.148;16.932;2023-06-22T10:16:23;36.53;;;9.90;;
45893;SDS011;31603;51.148;16.932;2023-06-22T10:18:51;29.10;;;9.38;;
45893;SDS011;31603;51.148;16.932;2023-06-22T10:21:19;28.25;;;9.30;;
45893;SDS011;31603;51.148;16.932;2023-06-22T10:23:45;38.53;;;10.50;;
45893;SDS011;31603;51.148;16.932;2023-06-22T10:26:11;40.15;;;9.52;;
45893;SDS011;31603;51.148;16.932;2023-06-22T10:28:38;32.35;;;9.70;;
45893;SDS011;31603;51.148;16.932;2023-06-22T10:31:04;51.05;;;11.38;;
45893;SDS011;31603;51.148;16.932;2023-06-22T10:33:30;44.20;;;10.95;;
45893;SDS011;31603;51.148;16.932;2023-06-22T10:35:56;31.55;;;9.32;;
45893;SDS011;31603;51.148;16.932;2023-06-22T10:38:24;47.33;;;10.50;;
45893;SDS011;31603;51.148;16.932;2023-06-22T10:40:50;40.78;;;10.60;;
45893;SDS011;31603;51.148;16.932;2023-06-22T10:43:17;35.70;;;9.63;;
45893;SDS011;31603;51.148;16.932;2023-06-22T10:45:43;38.10;;;9.77;;
45893;SDS011;31603;51.148;16.932;2023-06-22T10:48:10;37.60;;;9.43;;
45893;SDS011;31603;51.148;16.932;2023-06-22T10:50:36;41.42;;;10.38;;
45893;SDS011;31603;51.148;16.932;2023-06-22T10:53:02;30.73;;;9.20;;
45893;SDS011;31603;51.148;16.932;2023-06-22T10:55:30;28.92;;;8.68;;
45893;SDS011;31603;51.148;16.932;2023-06-22T10:57:56;34.75;;;10.23;;
45893;SDS011;31603;51.148;16.932;2023-06-22T11:00:22;28.95;;;9.15;;
45893;SDS011;31603;51.148;16.932;2023-06-22T11:02:48;40.08;;;10.35;;
45893;SDS011;31603;51.148;16.932;2023-06-22T11:05:15;36.05;;;10.43;;
45893;SDS011;31603;51.148;16.932;2023-06-22T11:07:41;40.83;;;10.52;;
45893;SDS011;31603;51.148;16.932;2023-06-22T11:10:09;38.80;;;9.90;;
45893;SDS011;31603;51.148;16.932;2023-06-22T11:12:36;45.35;;;12.10;;
45893;SDS011;31603;51.148;16.932;2023-06-22T11:15:03;34.42;;;10.88;;
45893;SDS011;31603;51.148;16.932;2023-06-22T11:17:29;56.22;;;11.45;;
45893;SDS011;31603;51.148;16.932;2023-06-22T11:19:56;39.72;;;10.07;;
45893;SDS011;31603;51.148;16.932;2023-06-22T11:22:22;39.10;;;11.45;;
45893;SDS011;31603;51.148;16.932;2023-06-22T11:24:48;42.75;;;10.52;;
45893;SDS011;31603;51.148;16.932;2023-06-22T11:27:14;39.38;;;9.82;;
45893;SDS011;31603;51.148;16.932;2023-06-22T11:29:42;34.40;;;9.25;;
45893;SDS011;31603;51.148;16.932;2023-06-22T11:32:09;48.00;;;10.10;;
45893;SDS011;31603;51.148;16.932;2023-06-22T11:34:35;33.50;;;8.07;;
45893;SDS011;31603;51.148;16.932;2023-06-22T11:37:01;30.92;;;8.10;;
45893;SDS011;31603;51.148;16.932;2023-06-22T11:39:28;30.25;;;7.93;;
45893;SDS011;31603;51.148;16.932;2023-06-22T11:41:54;24.50;;;7.03;;
45893;SDS011;31603;51.148;16.932;2023-06-22T11:44:21;34.13;;;8.20;;
45893;SDS011;31603;51.148;16.932;2023-06-22T11:46:48;27.63;;;7.57;;
45893;SDS011;31603;51.148;16.932;2023-06-22T11:49:15;31.15;;;8.07;;
45893;SDS011;31603;51.148;16.932;2023-06-22T11:51:41;43.80;;;8.50;;
45893;SDS011;31603;51.148;16.932;2023-06-22T11:54:07;41.85;;;8.55;;
45893;SDS011;31603;51.148;16.932;2023-06-22T11:56:33;30.63;;;7.00;;
45893;SDS011;31603;51.148;16.932;2023-06-22T11:59:00;44.97;;;8.10;;
45893;SDS011;31603;51.148;16.932;2023-06-22T12:01:26;41.55;;;7.97;;
45893;SDS011;31603;51.148;16.932;2023-06-22T12:03:54;31.08;;;7.13;;
45893;SDS011;31603;51.148;16.932;2023-06-22T12:06:20;38.70;;;7.97;;
45893;SDS011;31603;51.148;16.932;2023-06-22T12:08:46;41.63;;;8.48;;
45893;SDS011;31603;51.148;16.932;2023-06-22T12:11:12;31.33;;;7.13;;
45893;SDS011;31603;51.148;16.932;2023-06-22T12:13:39;38.67;;;7.65;;
45893;SDS011;31603;51.148;16.932;2023-06-22T12:16:05;27.77;;;6.72;;
45893;SDS011;31603;51.148;16.932;2023-06-22T12:18:32;37.70;;;7.38;;
45893;SDS011;31603;51.148;16.932;2023-06-22T12:20:59;29.48;;;7.68;;
45893;SDS011;31603;51.148;16.932;2023-06-22T12:23:25;35.05;;;7.70;;
45893;SDS011;31603;51.148;16.932;2023-06-22T12:25:52;43.67;;;8.05;;
45893;SDS011;31603;51.148;16.932;2023-06-22T12:28:18;48.08;;;8.48;;
45893;SDS011;31603;51.148;16.932;2023-06-22T12:30:44;34.10;;;7.80;;
45893;SDS011;31603;51.148;16.932;2023-06-22T12:33:10;32.53;;;7.38;;
45893;SDS011;31603;51.148;16.932;2023-06-22T12:35:37;30.10;;;7.57;;
45893;SDS011;31603;51.148;16.932;2023-06-22T12:38:04;29.85;;;6.55;;
45893;SDS011;31603;51.148;16.932;2023-06-22T12:40:33;31.95;;;6.93;;
45893;SDS011;31603;51.148;16.932;2023-06-22T12:42:59;36.47;;;7.40;;
45893;SDS011;31603;51.148;16.932;2023-06-22T12:45:27;31.45;;;6.65;;
45893;SDS011;31603;51.148;16.932;2023-06-22T12:47:56;46.42;;;7.93;;
45893;SDS011;31603;51.148;16.932;2023-06-22T12:50:22;31.10;;;6.85;;
45893;SDS011;31603;51.148;16.932;2023-06-22T12:52:49;28.00;;;6.40;;
45893;SDS011;31603;51.148;16.932;2023-06-22T12:55:16;33.15;;;6.97;;
45893;SDS011;31603;51.148;16.932;2023-06-22T12:57:42;53.65;;;8.10;;
45893;SDS011;31603;51.148;16.932;2023-06-22T13:00:10;40.97;;;7.40;;
45893;SDS011;31603;51.148;16.932;2023-06-22T13:02:36;28.08;;;6.35;;
45893;SDS011;31603;51.148;16.932;2023-06-22T13:05:03;24.92;;;6.10;;
45893;SDS011;31603;51.148;16.932;2023-06-22T13:07:31;21.30;;;6.13;;
45893;SDS011;31603;51.148;16.932;2023-06-22T13:09:57;30.88;;;7.15;;
45893;SDS011;31603;51.148;16.932;2023-06-22T13:12:24;35.38;;;7.68;;
45893;SDS011;31603;51.148;16.932;2023-06-22T13:14:51;33.05;;;7.13;;
45893;SDS011;31603;51.148;16.932;2023-06-22T13:17:17;40.70;;;7.75;;
45893;SDS011;31603;51.148;16.932;2023-06-22T13:19:43;34.97;;;7.10;;
45893;SDS011;31603;51.148;16.932;2023-06-22T13:22:25;28.88;;;6.28;;
45893;SDS011;31603;51.148;16.932;2023-06-22T13:24:52;39.60;;;8.25;;
45893;SDS011;31603;51.148;16.932;2023-06-22T13:27:18;32.92;;;7.50;;
45893;SDS011;31603;51.148;16.932;2023-06-22T13:29:45;26.02;;;7.05;;
45893;SDS011;31603;51.148;16.932;2023-06-22T13:32:12;30.67;;;7.15;;
45893;SDS011;31603;51.148;16.932;2023-06-22T13:34:38;30.95;;;7.18;;
45893;SDS011;31603;51.148;16.932;2023-06-22T13:37:05;31.35;;;6.80;;
45893;SDS011;31603;51.148;16.932;2023-06-22T13:39:31;40.47;;;8.35;;
45893;SDS011;31603;51.148;16.932;2023-06-22T13:41:58;25.27;;;7.18;;
45893;SDS011;31603;51.148;16.932;2023-06-22T13:44:24;23.65;;;6.30;;
45893;SDS011;31603;51.148;16.932;2023-06-22T13:46:55;32.70;;;7.68;;
45893;SDS011;31603;51.148;16.932;2023-06-22T13:49:21;31.00;;;7.85;;
45893;SDS011;31603;51.148;16.932;2023-06-22T13:51:48;31.45;;;7.30;;
45893;SDS011;31603;51.148;16.932;2023-06-22T13:54:14;27.02;;;6.72;;
45893;SDS011;31603;51.148;16.932;2023-06-22T13:56:40;41.13;;;7.80;;
45893;SDS011;31603;51.148;16.932;2023-06-22T13:59:06;27.67;;;6.85;;
45893;SDS011;31603;51.148;16.932;2023-06-22T14:01:34;27.63;;;6.85;;
45893;SDS011;31603;51.148;16.932;2023-06-22T14:04:02;38.28;;;7.97;;
45893;SDS011;31603;51.148;16.932;2023-06-22T14:06:28;34.38;;;7.53;;
45893;SDS011;31603;51.148;16.932;2023-06-22T14:08:55;29.92;;;7.90;;
45893;SDS011;31603;51.148;16.932;2023-06-22T14:11:21;27.27;;;7.45;;